Tuesday, November 21, 2017, 10:53 PM EST
Back to Local

KIPT, Williamsport-lycoming County

Location: Montoursville, PA, United States Lat: 41.25
Local Time: 10:53 PM EST ( 3:53 GMT) Lon: -76.917
Time Zone: US/Eastern Elev: 528 ft

Show me the last for .
Show Decoded

2017-11-21 21:54 METAR KIPT 220254Z 36003KT 10SM CLR 05/M02 A2995 RMK AO2 SLP146 T00501017 51006
                 =
2017-11-21 20:54 METAR KIPT 220154Z 34004KT 10SM CLR 07/M02 A2995 RMK AO2 SLP146 T00721017 =
2017-11-21 19:54 METAR KIPT 220054Z VRB03KT 10SM CLR 11/M02 A2995 RMK AO2 SLP146 T01061022 =
2017-11-21 18:54 METAR KIPT 212354Z 18014G21KT 10SM CLR 11/M02 A2993 RMK AO2 SLP139 T01111022
                 10139 20106 53007 =
2017-11-21 17:54 METAR KIPT 212254Z 17017G25KT 10SM CLR 12/M02 A2992 RMK AO2 PK WND 16028/2227
                 SLP136 T01171022 =
2017-11-21 16:54 METAR KIPT 212154Z 16012KT 10SM CLR 12/M03 A2991 RMK AO2 SLP133 T01221028 =
2017-11-21 15:54 METAR KIPT 212054Z 12006KT 10SM CLR 12/M03 A2991 RMK AO2 SLP132 T01221028 55007
                 =
2017-11-21 14:54 METAR KIPT 211954Z 14008G17KT 10SM CLR 13/M02 A2990 RMK AO2 SLP129 T01281022 =
2017-11-21 13:54 METAR KIPT 211854Z 16007KT 10SM CLR 13/M02 A2991 RMK AO2 SLP132 T01281022 =
2017-11-21 12:54 METAR KIPT 211754Z 16011KT 10SM CLR 12/M02 A2993 RMK AO2 SLP138 T01221022 10122
                 21039 58029 =
2017-11-21 11:54 METAR KIPT 211654Z 17006KT 10SM CLR 11/M02 A2996 RMK AO2 SLP148 T01061022 =
2017-11-21 10:54 METAR KIPT 211554Z VRB03KT 10SM CLR 08/M03 A3000 RMK AO2 SLP162 T00781028 =
2017-11-21 09:54 METAR KIPT 211454Z 26003KT 10SM CLR 04/M01 A3002 RMK AO2 SLP169 T00391006 58006
                 =
2017-11-21 08:54 METAR KIPT 211354Z 00000KT 10SM CLR 01/M03 A3003 RMK AO2 SLP175 T00061028 =
2017-11-21 07:54 METAR KIPT 211254Z 29003KT 10SM CLR M02/M04 A3004 RMK AO2 SLP178 T10221044 =
2017-11-21 06:54 METAR KIPT 211154Z 00000KT 10SM CLR M03/M05 A3003 RMK AO2 SLP175 T10331050 11006
                 21044 58005 =
2017-11-21 05:54 METAR KIPT 211054Z AUTO 00000KT 10SM CLR M03/M04 A3003 RMK AO2 SLP175 T10331044
                 =
2017-11-21 04:54 METAR KIPT 210954Z AUTO 26003KT 10SM CLR M03/M05 A3006 RMK AO2 SLP183 T10331050
                 =
2017-11-21 03:54 METAR KIPT 210854Z AUTO 00000KT 10SM CLR M03/M04 A3005 RMK AO2 SLP180 T10281039
                 58007 =
2017-11-21 02:54 METAR KIPT 210754Z AUTO 00000KT 10SM CLR M02/M04 A3006 RMK AO2 SLP183 T10221044
                 =
2017-11-21 01:54 METAR KIPT 210654Z AUTO 00000KT 10SM CLR M02/M04 A3007 RMK AO2 SLP186 T10171044
                 =
2017-11-21 00:54 METAR KIPT 210554Z AUTO 00000KT 10SM CLR M01/M03 A3007 RMK AO2 SLP187 T10111033
                 10056 21011 58004 =
2017-11-20 23:54 METAR KIPT 210454Z AUTO 00000KT 10SM CLR M01/M03 A3008 RMK AO2 SLP190 T10061033
                 400831011 =
2017-11-20 22:54 METAR KIPT 210354Z AUTO 00000KT 10SM CLR M01/M03 A3008 RMK AO2 SLP192 T10061033
                 =

Support USWX by starting your Amazon purchase here.